Time;durP1;ratioP1;P1;durP2;ratioP2;P2;SDS_P1;SDS_P2;PMS_P1;PMS_P2;Temp;Humidity;BMP_temperature;BMP_pressure;BME280_temperature;BME280_humidity;BME280_pressure;Samples;Min_cycle;Max_cycle;Signal;HPM_P1;HPM_P2
2023/05/14 00:01:13;;;;;;;;;;;;;;;;;;5124565;28;20119;-46
2023/05/14 05:10:56;;;;;;;;;;;;;;;;;;5090835;28;19969;-47
2023/05/14 05:13:22;;;;;;;;;;;;;;;;;;5090555;28;19912;-45
2023/05/14 05:15:48;;;;;;;;;;;;;;;;;;5090422;28;19967;-47
2023/05/14 05:18:14;;;;;;;;;;;;;;;;;;5089979;28;19924;-44
2023/05/14 05:20:40;;;;;;;;;;;;;;;;;;5090206;28;19920;-45
2023/05/14 05:23:06;;;;;;;;;;;;;;;;;;5089829;28;20462;-45
2023/05/14 05:25:32;;;;;;;;;;;;;;;;;;5090804;28;19918;-44
2023/05/14 05:27:57;;;;;;;;;;;;;;;;;;5089513;28;19965;-46
2023/05/14 05:30:23;;;;;;;;;;;;;;;;;;5090321;28;19941;-45
2023/05/14 05:32:49;;;;;;;;;;;;;;;;;;5090212;28;19930;-44
2023/05/14 05:35:15;;;;;;;;;;;;;;;;;;5095647;28;19922;-44
2023/05/14 05:37:41;;;;;;;;;;;;;;;;;;5108528;28;19907;-45
2023/05/14 05:40:08;;;;;;;;;;;;;;;;;;5110557;28;19911;-46
2023/05/14 05:42:33;;;;;;;;;;;;;;;;;;5110168;28;19916;-46
2023/05/14 05:44:59;;;;;;;;;;;;;;;;;;5109294;28;20336;-45
2023/05/14 05:47:25;;;;;;;;;;;;;;;;;;5110558;28;20286;-45
2023/05/14 05:49:52;;;;;;;;;;;;;;;;;;5094477;28;19972;-45
2023/05/14 05:52:18;;;;;;;;;;;;;;;;;;5092766;28;19909;-45
2023/05/14 05:54:44;;;;;;;;;;;;;;;;;;5092115;28;19927;-46
2023/05/14 05:57:10;;;;;;;;;;;;;;;;;;5104149;28;19930;-44
2023/05/14 05:59:36;;;;;;;;;;;;;;;;;;5110571;28;19911;-44
2023/05/14 06:02:02;;;;;;;;;;;;;;;;;;5110145;28;20378;-45
2023/05/14 06:04:28;;;;;;;;;;;;;;;;;;5109233;28;20010;-44
2023/05/14 06:06:55;;;;;;;;;;;;;;;;;;5110237;28;19912;-47
2023/05/14 06:09:21;;;;;;;;;;;;;;;;;;5106671;28;19912;-47
2023/05/14 06:11:47;;;;;;;;;;;;;;;;;;5089277;28;20391;-45
2023/05/14 06:14:13;;;;;;;;;;;;;;;;;;5098652;28;19968;-45
2023/05/14 06:16:39;;;;;;;;;;;;;;;;;;5109870;28;19908;-46
2023/05/14 06:19:05;;;;;;;;;;;;;;;;;;5109611;28;20390;-45
2023/05/14 06:21:32;;;;;;;;;;;;;;;;;;5109592;28;19907;-45
2023/05/14 06:23:59;;;;;;;;;;;;;;;;;;5109321;28;20385;-46
2023/05/14 06:26:25;;;;;;;;;;;;;;;;;;5098058;28;19923;-46
2023/05/14 06:28:51;;;;;;;;;;;;;;;;;;5109559;28;20010;-45
2023/05/14 06:31:16;;;;;;;;;;;;;;;;;;5109325;28;20025;-47
2023/05/14 06:33:42;;;;;;;;;;;;;;;;;;5107624;28;19943;-45
2023/05/14 06:36:08;;;;;;;;;;;;;;;;;;5105530;28;19915;-47
2023/05/14 06:38:34;;;;;;;;;;;;;;;;;;5107659;28;19916;-46
2023/05/14 06:41:00;;;;;;;;;;;;;;;;;;5119157;27;19916;-45
2023/05/14 06:43:26;;;;;;;;;;;;;;;;;;5130193;27;19954;-45
2023/05/14 06:45:52;;;;;;;;;;;;;;;;;;5130893;27;20033;-46
2023/05/14 06:48:18;;;;;;;;;;;;;;;;;;5129773;27;19911;-45
2023/05/14 06:50:44;;;;;;;;;;;;;;;;;;5130967;27;20500;-44
2023/05/14 06:53:10;;;;;;;;;;;;;;;;;;5129902;27;20002;-46
2023/05/14 06:55:36;;;;;;;;;;;;;;;;;;5129054;27;19908;-46
2023/05/14 06:58:02;;;;;;;;;;;;;;;;;;5111799;27;19912;-45
2023/05/14 07:00:28;;;;;;;;;;;;;;;;;;5127782;27;19996;-46
2023/05/14 07:02:54;;;;;;;;;;;;;;;;;;5125031;27;19997;-45
2023/05/14 07:05:20;;;;;;;;;;;;;;;;;;5130777;27;19912;-44
2023/05/14 07:07:46;;;;;;;;;;;;;;;;;;5110628;27;19911;-44
2023/05/14 07:10:12;;;;;;;;;;;;;;;;;;5107553;28;19918;-44
2023/05/14 07:12:38;;;;;;;;;;;;;;;;;;5107977;28;19912;-44
2023/05/14 07:15:04;;;;;;;;;;;;;;;;;;5117052;27;20335;-45
2023/05/14 07:17:30;;;;;;;;;;;;;;;;;;5125695;27;20006;-44
2023/05/14 07:19:56;;;;;;;;;;;;;;;;;;5127597;27;20002;-44
2023/05/14 07:22:22;;;;;;;;;;;;;;;;;;5123202;27;20012;-45
2023/05/14 07:24:49;;;;;;;;;;;;;;;;;;5123348;27;19964;-45
2023/05/14 07:27:16;;;;;;;;;;;;;;;;;;5128424;27;19915;-44
2023/05/14 07:29:41;;;;;;;;;;;;;;;;;;5119772;27;19915;-44
2023/05/14 07:32:07;;;;;;;;;;;;;;;;;;5128790;27;19956;-44
2023/05/14 07:34:33;;;;;;;;;;;;;;;;;;5128224;27;19916;-47
2023/05/14 07:36:59;;;;;;;;;;;;;;;;;;5125251;27;19912;-46
2023/05/14 07:39:25;;;;;;;;;;;;;;;;;;5127060;27;19916;-45
2023/05/14 07:41:53;;;;;;;;;;;;;;;;;;5122573;27;19951;-45
2023/05/14 07:44:19;;;;;;;;;;;;;;;;;;5122437;27;19911;-46
2023/05/14 07:46:45;;;;;;;;;;;;;;;;;;5126750;27;20418;-45
2023/05/14 07:49:11;;;;;;;;;;;;;;;;;;5124158;27;19911;-46
2023/05/14 07:51:37;;;;;;;;;;;;;;;;;;5118876;27;19915;-44
2023/05/14 07:54:03;;;;;;;;;;;;;;;;;;5130876;27;20415;-47
2023/05/14 07:56:29;;;;;;;;;;;;;;;;;;5143732;27;19911;-44
2023/05/14 07:58:55;;;;;;;;;;;;;;;;;;5124833;27;20007;-45
2023/05/14 08:01:21;;;;;;;;;;;;;;;;;;5124067;27;20046;-47
2023/05/14 08:03:48;;;;;;;;;;;;;;;;;;5131682;27;19951;-44
2023/05/14 08:06:14;;;;;;;;;;;;;;;;;;5132222;27;19919;-46
2023/05/14 08:08:40;;;;;;;;;;;;;;;;;;5133158;27;19911;-49
2023/05/14 08:11:06;;;;;;;;;;;;;;;;;;5132156;27;19916;-46
2023/05/14 08:13:32;;;;;;;;;;;;;;;;;;5132643;27;19918;-45
2023/05/14 08:15:58;;;;;;;;;;;;;;;;;;5132113;27;19920;-46
2023/05/14 08:18:23;;;;;;;;;;;;;;;;;;5132370;27;20050;-48
2023/05/14 08:20:50;;;;;;;;;;;;;;;;;;5132245;27;21295;-45
2023/05/14 08:23:16;;;;;;;;;;;;;;;;;;5132228;27;20010;-45
2023/05/14 08:25:42;;;;;;;;;;;;;;;;;;5132034;27;20369;-47
2023/05/14 08:28:08;;;;;;;;;;;;;;;;;;5131831;27;19918;-45
2023/05/14 08:30:34;;;;;;;;;;;;;;;;;;5132390;27;19972;-44
2023/05/14 08:33:00;;;;;;;;;;;;;;;;;;5131935;27;19935;-46
2023/05/14 08:35:26;;;;;;;;;;;;;;;;;;5131756;27;20294;-45
2023/05/14 08:37:53;;;;;;;;;;;;;;;;;;5131857;27;19908;-45
2023/05/14 08:40:20;;;;;;;;;;;;;;;;;;5131657;27;19911;-45
2023/05/14 08:42:47;;;;;;;;;;;;;;;;;;5131587;27;20424;-47
2023/05/14 08:45:14;;;;;;;;;;;;;;;;;;5131478;27;19979;-47
2023/05/14 08:47:40;;;;;;;;;;;;;;;;;;5131535;27;19911;-47
2023/05/14 08:50:07;;;;;;;;;;;;;;;;;;5131970;27;19998;-46
2023/05/14 08:52:33;;;;;;;;;;;;;;;;;;5132221;27;20257;-48
2023/05/14 08:54:59;;;;;;;;;;;;;;;;;;5129337;27;19919;-48
2023/05/14 08:57:25;;;;;;;;;;;;;;;;;;5126361;27;20290;-44
2023/05/14 08:59:51;;;;;;;;;;;;;;;;;;5130329;27;19911;-46
2023/05/14 09:02:17;;;;;;;;;;;;;;;;;;5126917;27;19964;-46
2023/05/14 09:04:43;;;;;;;;;;;;;;;;;;5130551;27;20288;-47
2023/05/14 09:07:10;;;;;;;;;;;;;;;;;;5110644;27;19916;-47
2023/05/14 09:09:36;;;;;;;;;;;;;;;;;;5122165;27;19953;-48
2023/05/14 09:12:02;;;;;;;;;;;;;;;;;;5130374;27;19951;-48
2023/05/14 09:14:28;;;;;;;;;;;;;;;;;;5130134;27;19957;-44
2023/05/14 09:16:54;;;;;;;;;;;;;;;;;;5115784;27;20019;-45
2023/05/14 09:19:20;;;;;;;;;;;;;;;;;;5111586;28;19908;-46
2023/05/14 09:21:46;;;;;;;;;;;;;;;;;;5124492;27;19911;-46
2023/05/14 09:24:12;;;;;;;;;;;;;;;;;;5131384;27;19911;-48
2023/05/14 09:26:38;;;;;;;;;;;;;;;;;;5130846;27;20394;-45
2023/05/14 09:29:04;;;;;;;;;;;;;;;;;;5130593;27;19919;-46
2023/05/14 09:31:30;;;;;;;;;;;;;;;;;;5131800;27;19969;-49
2023/05/14 09:33:56;;;;;;;;;;;;;;;;;;5130670;27;19911;-46
2023/05/14 09:36:23;;;;;;;;;;;;;;;;;;5132877;27;19911;-45
2023/05/14 09:38:50;;;;;;;;;;;;;;;;;;5134870;27;19912;-47
2023/05/14 09:41:16;;;;;;;;;;;;;;;;;;5125490;27;19919;-45
2023/05/14 09:43:42;;;;;;;;;;;;;;;;;;5119203;27;19915;-45
2023/05/14 09:46:08;;;;;;;;;;;;;;;;;;5130218;27;19922;-45
2023/05/14 09:48:34;;;;;;;;;;;;;;;;;;5131487;27;19912;-45
2023/05/14 09:51:00;;;;;;;;;;;;;;;;;;5131427;27;19915;-47
2023/05/14 09:53:26;;;;;;;;;;;;;;;;;;5124407;27;19908;-48
2023/05/14 09:55:52;;;;;;;;;;;;;;;;;;5123595;27;19911;-45
2023/05/14 09:58:18;;;;;;;;;;;;;;;;;;5130893;27;19912;-45
2023/05/14 10:00:45;;;;;;;;;;;;;;;;;;5127878;27;19920;-45
2023/05/14 10:03:11;;;;;;;;;;;;;;;;;;5120477;27;19922;-48
2023/05/14 10:05:37;;;;;;;;;;;;;;;;;;5113921;27;19911;-45
2023/05/14 10:08:03;;;;;;;;;;;;;;;;;;5127462;27;19934;-47
2023/05/14 10:10:29;;;;;;;;;;;;;;;;;;5129315;27;19926;-44
2023/05/14 10:12:55;;;;;;;;;;;;;;;;;;5130121;27;20138;-44
2023/05/14 10:15:21;;;;;;;;;;;;;;;;;;5130147;27;19986;-45
2023/05/14 10:17:47;;;;;;;;;;;;;;;;;;5130497;27;19916;-46
2023/05/14 10:20:12;;;;;;;;;;;;;;;;;;5127360;27;19916;-45
2023/05/14 10:22:38;;;;;;;;;;;;;;;;;;5126590;27;20024;-45
2023/05/14 10:25:04;;;;;;;;;;;;;;;;;;5113831;27;19921;-47
2023/05/14 10:27:30;;;;;;;;;;;;;;;;;;5109745;28;19911;-44
2023/05/14 10:29:56;;;;;;;;;;;;;;;;;;5120464;27;19912;-45
2023/05/14 10:32:25;;;;;;;;;;;;;;;;;;5111326;27;19935;-45
2023/05/14 10:34:51;;;;;;;;;;;;;;;;;;5125933;27;19995;-45
2023/05/14 10:37:17;;;;;;;;;;;;;;;;;;5123127;27;20018;-45
2023/05/14 10:39:43;;;;;;;;;;;;;;;;;;5128608;27;19951;-44
2023/05/14 10:42:09;;;;;;;;;;;;;;;;;;5120219;27;19916;-45
2023/05/14 10:44:35;;;;;;;;;;;;;;;;;;5129177;27;19911;-44
2023/05/14 10:47:01;;;;;;;;;;;;;;;;;;5130130;27;19960;-44
2023/05/14 10:49:27;;;;;;;;;;;;;;;;;;5128956;27;19911;-45
2023/05/14 10:51:53;;;;;;;;;;;;;;;;;;5129603;27;19930;-45
2023/05/14 10:54:19;;;;;;;;;;;;;;;;;;5129105;27;19911;-46
2023/05/14 10:56:45;;;;;;;;;;;;;;;;;;5128130;27;19919;-45
2023/05/14 10:59:10;;;;;;;;;;;;;;;;;;5126330;27;19941;-44
2023/05/14 11:01:36;;;;;;;;;;;;;;;;;;5128054;27;19911;-44
2023/05/14 11:04:02;;;;;;;;;;;;;;;;;;5128411;27;19908;-45
2023/05/14 11:06:28;;;;;;;;;;;;;;;;;;5115262;27;19950;-45
2023/05/14 11:08:55;;;;;;;;;;;;;;;;;;5109254;27;20349;-45
2023/05/14 11:11:20;;;;;;;;;;;;;;;;;;5098917;27;19916;-45
2023/05/14 11:13:47;;;;;;;;;;;;;;;;;;5105503;27;19912;-44
2023/05/14 11:16:17;;;;;;;;;;;;;;;;;;5105898;28;19907;-46
2023/05/14 11:18:43;;;;;;;;;;;;;;;;;;5109537;27;19916;-45
2023/05/14 11:21:09;;;;;;;;;;;;;;;;;;5116563;27;19934;-44
2023/05/14 11:23:35;;;;;;;;;;;;;;;;;;5112086;27;19922;-44
2023/05/14 11:26:01;;;;;;;;;;;;;;;;;;5107683;27;19911;-46
2023/05/14 11:28:27;;;;;;;;;;;;;;;;;;5125188;27;19935;-46
2023/05/14 11:30:53;;;;;;;;;;;;;;;;;;5105746;27;19915;-47
2023/05/14 11:33:19;;;;;;;;;;;;;;;;;;5125152;27;20266;-46
2023/05/14 11:35:45;;;;;;;;;;;;;;;;;;5121387;27;19915;-45
2023/05/14 11:38:11;;;;;;;;;;;;;;;;;;5119646;27;19949;-46
2023/05/14 11:40:38;;;;;;;;;;;;;;;;;;5124846;27;19954;-46
2023/05/14 11:43:04;;;;;;;;;;;;;;;;;;5126077;27;19926;-44
2023/05/14 11:45:31;;;;;;;;;;;;;;;;;;5107448;27;19916;-45
2023/05/14 11:47:57;;;;;;;;;;;;;;;;;;5125120;27;19919;-45
2023/05/14 11:50:23;;;;;;;;;;;;;;;;;;5124971;27;20357;-47
2023/05/14 11:52:49;;;;;;;;;;;;;;;;;;5125227;27;19977;-46
2023/05/14 11:55:15;;;;;;;;;;;;;;;;;;5124834;27;19998;-45
2023/05/14 11:57:42;;;;;;;;;;;;;;;;;;5123802;28;19998;-46
2023/05/14 12:00:12;;;;;;;;;;;;;;;;;;5125247;28;19915;-45
2023/05/14 12:02:39;;;;;;;;;;;;;;;;;;5125441;28;19911;-46
2023/05/14 12:05:06;;;;;;;;;;;;;;;;;;5122455;28;20390;-46
2023/05/14 12:07:33;;;;;;;;;;;;;;;;;;5122825;28;19923;-45
2023/05/14 12:09:58;;;;;;;;;;;;;;;;;;5123364;28;20386;-47
2023/05/14 12:12:24;;;;;;;;;;;;;;;;;;5120868;28;19939;-45
2023/05/14 12:14:51;;;;;;;;;;;;;;;;;;5125414;28;19945;-45
2023/05/14 12:17:18;;;;;;;;;;;;;;;;;;5123105;28;19935;-45
2023/05/14 12:19:44;;;;;;;;;;;;;;;;;;5120090;28;19972;-48
2023/05/14 12:22:11;;;;;;;;;;;;;;;;;;5106296;28;19969;-46
2023/05/14 12:24:38;;;;;;;;;;;;;;;;;;5124921;28;19911;-46
2023/05/14 12:27:04;;;;;;;;;;;;;;;;;;5103749;28;19919;-44
2023/05/14 12:29:31;;;;;;;;;;;;;;;;;;5125394;28;19915;-47
2023/05/14 12:32:03;;;;;;;;;;;;;;;;;;5106475;28;20317;-46
2023/05/14 12:34:29;;;;;;;;;;;;;;;;;;5122477;28;20450;-45
2023/05/14 12:36:56;;;;;;;;;;;;;;;;;;5124694;28;19919;-46
2023/05/14 12:39:22;;;;;;;;;;;;;;;;;;5124752;28;20223;-47
2023/05/14 12:41:47;;;;;;;;;;;;;;;;;;5124540;28;19998;-46
2023/05/14 12:44:13;;;;;;;;;;;;;;;;;;5118884;28;20294;-45
2023/05/14 12:46:39;;;;;;;;;;;;;;;;;;5106455;27;20417;-45
2023/05/14 12:49:05;;;;;;;;;;;;;;;;;;5128717;27;19915;-45
2023/05/14 12:51:31;;;;;;;;;;;;;;;;;;5129305;27;19918;-48
2023/05/14 12:53:57;;;;;;;;;;;;;;;;;;5126492;27;19943;-49
2023/05/14 12:56:27;;;;;;;;;;;;;;;;;;5127894;27;19918;-47
2023/05/14 12:58:53;;;;;;;;;;;;;;;;;;5120905;27;20326;-48
2023/05/14 13:01:19;;;;;;;;;;;;;;;;;;5113145;27;19924;-48
2023/05/14 13:03:46;;;;;;;;;;;;;;;;;;5115577;27;19919;-45
2023/05/14 13:06:12;;;;;;;;;;;;;;;;;;5141372;27;19912;-48
2023/05/14 13:08:37;;;;;;;;;;;;;;;;;;5135322;27;19911;-46
2023/05/14 13:11:03;;;;;;;;;;;;;;;;;;5120460;27;19926;-48
2023/05/14 13:13:29;;;;;;;;;;;;;;;;;;5127919;27;19961;-45
2023/05/14 13:15:55;;;;;;;;;;;;;;;;;;5126833;27;19923;-48
2023/05/14 13:18:22;;;;;;;;;;;;;;;;;;5109004;27;19912;-46
2023/05/14 13:20:48;;;;;;;;;;;;;;;;;;5122615;27;19919;-45
2023/05/14 13:23:14;;;;;;;;;;;;;;;;;;5126436;27;19927;-46
2023/05/14 13:25:41;;;;;;;;;;;;;;;;;;5127471;27;20483;-48
2023/05/14 13:28:07;;;;;;;;;;;;;;;;;;5126467;27;19912;-49
2023/05/14 13:30:33;;;;;;;;;;;;;;;;;;5127132;27;19912;-48
2023/05/14 13:33:00;;;;;;;;;;;;;;;;;;5126998;27;20094;-45
2023/05/14 13:35:25;;;;;;;;;;;;;;;;;;5126606;27;19922;-48
2023/05/14 13:37:51;;;;;;;;;;;;;;;;;;5127203;27;20132;-45
2023/05/14 13:40:18;;;;;;;;;;;;;;;;;;5126186;27;19941;-49
2023/05/14 13:42:44;;;;;;;;;;;;;;;;;;5127170;27;19911;-46
2023/05/14 13:45:11;;;;;;;;;;;;;;;;;;5125506;27;19916;-46
2023/05/14 13:47:37;;;;;;;;;;;;;;;;;;5108162;27;20010;-46
2023/05/14 13:50:03;;;;;;;;;;;;;;;;;;5108562;27;20026;-48
2023/05/14 13:52:29;;;;;;;;;;;;;;;;;;5127764;27;19915;-47
2023/05/14 13:54:55;;;;;;;;;;;;;;;;;;5125818;27;19919;-48
2023/05/14 13:57:21;;;;;;;;;;;;;;;;;;5104435;27;20386;-45
2023/05/14 13:59:48;;;;;;;;;;;;;;;;;;5125507;27;19969;-47
2023/05/14 14:02:14;;;;;;;;;;;;;;;;;;5126604;27;20452;-46
2023/05/14 14:04:40;;;;;;;;;;;;;;;;;;5115875;27;19951;-47
2023/05/14 14:07:07;;;;;;;;;;;;;;;;;;5107245;27;19919;-49
2023/05/14 14:09:35;;;;;;;;;;;;;;;;;;5108648;27;20441;-46
2023/05/14 14:12:01;;;;;;;;;;;;;;;;;;5127037;27;19919;-46
2023/05/14 14:14:28;;;;;;;;;;;;;;;;;;5126679;27;19943;-46
2023/05/14 14:16:54;;;;;;;;;;;;;;;;;;5112563;27;20019;-46
2023/05/14 14:19:22;;;;;;;;;;;;;;;;;;5119467;27;20310;-45
2023/05/14 14:21:48;;;;;;;;;;;;;;;;;;5118192;27;19916;-47
2023/05/14 14:24:14;;;;;;;;;;;;;;;;;;5120219;27;19916;-46
2023/05/14 14:26:40;;;;;;;;;;;;;;;;;;5111081;27;20543;-45
2023/05/14 14:29:06;;;;;;;;;;;;;;;;;;5129366;27;19916;-47
2023/05/14 14:31:32;;;;;;;;;;;;;;;;;;5128950;27;19915;-46
2023/05/14 14:33:58;;;;;;;;;;;;;;;;;;5129730;27;19907;-45
2023/05/14 14:36:24;;;;;;;;;;;;;;;;;;5129202;27;19919;-46
2023/05/14 14:38:50;;;;;;;;;;;;;;;;;;5129132;27;19998;-46
2023/05/14 14:41:16;;;;;;;;;;;;;;;;;;5127112;27;19923;-45
2023/05/14 14:43:42;;;;;;;;;;;;;;;;;;5129121;27;19907;-49
2023/05/14 14:46:08;;;;;;;;;;;;;;;;;;5129425;27;19908;-47
2023/05/14 14:48:37;;;;;;;;;;;;;;;;;;5129409;27;20342;-44
2023/05/14 14:51:03;;;;;;;;;;;;;;;;;;5127154;27;19941;-46
2023/05/14 14:53:29;;;;;;;;;;;;;;;;;;5119179;27;19911;-45
2023/05/14 14:55:55;;;;;;;;;;;;;;;;;;5129005;27;19942;-45
2023/05/14 14:58:21;;;;;;;;;;;;;;;;;;5129123;27;20008;-44
2023/05/14 15:00:47;;;;;;;;;;;;;;;;;;5129037;27;20318;-45
2023/05/14 15:03:13;;;;;;;;;;;;;;;;;;5128084;27;19964;-46
2023/05/14 15:05:39;;;;;;;;;;;;;;;;;;5128890;27;19914;-45
2023/05/14 15:08:05;;;;;;;;;;;;;;;;;;5126351;27;19918;-45
2023/05/14 15:10:31;;;;;;;;;;;;;;;;;;5126441;27;19920;-47
2023/05/14 15:12:57;;;;;;;;;;;;;;;;;;5124741;27;19938;-45
2023/05/14 15:15:23;;;;;;;;;;;;;;;;;;5128483;27;19915;-46
2023/05/14 15:17:49;;;;;;;;;;;;;;;;;;5128223;27;19917;-45
2023/05/14 15:20:15;;;;;;;;;;;;;;;;;;5128525;27;19916;-45
2023/05/14 15:22:41;;;;;;;;;;;;;;;;;;5120997;27;19915;-46
2023/05/14 15:25:07;;;;;;;;;;;;;;;;;;5112089;27;19951;-45
2023/05/14 15:27:33;;;;;;;;;;;;;;;;;;5116629;27;19916;-45
2023/05/14 15:29:59;;;;;;;;;;;;;;;;;;5128324;27;20427;-46
2023/05/14 15:32:27;;;;;;;;;;;;;;;;;;5112976;27;19972;-46
2023/05/14 15:34:53;;;;;;;;;;;;;;;;;;5107828;28;19914;-46
2023/05/14 15:37:19;;;;;;;;;;;;;;;;;;5116830;27;19911;-45
2023/05/14 15:39:46;;;;;;;;;;;;;;;;;;5127353;27;19915;-45
2023/05/14 15:42:12;;;;;;;;;;;;;;;;;;5126108;27;19950;-48
2023/05/14 15:44:38;;;;;;;;;;;;;;;;;;5127954;27;19973;-46
2023/05/14 15:47:04;;;;;;;;;;;;;;;;;;5127020;27;19919;-45
2023/05/14 15:49:30;;;;;;;;;;;;;;;;;;5125697;27;19919;-45
2023/05/14 15:51:56;;;;;;;;;;;;;;;;;;5125119;27;19998;-47
2023/05/14 15:54:22;;;;;;;;;;;;;;;;;;5126832;27;19922;-45
2023/05/14 15:56:48;;;;;;;;;;;;;;;;;;5107189;28;19919;-47
2023/05/14 15:59:16;;;;;;;;;;;;;;;;;;5126780;28;19912;-46
2023/05/14 16:01:42;;;;;;;;;;;;;;;;;;5107304;28;19964;-45
2023/05/14 16:04:08;;;;;;;;;;;;;;;;;;5126599;28;20366;-46
2023/05/14 16:06:34;;;;;;;;;;;;;;;;;;5123860;28;19915;-45
2023/05/14 16:09:01;;;;;;;;;;;;;;;;;;5120610;28;19946;-46
2023/05/14 16:11:27;;;;;;;;;;;;;;;;;;5125034;28;19928;-45
2023/05/14 16:13:53;;;;;;;;;;;;;;;;;;5130969;27;19938;-47
2023/05/14 16:16:21;;;;;;;;;;;;;;;;;;5126312;28;19912;-47
2023/05/14 16:18:47;;;;;;;;;;;;;;;;;;5123470;28;19915;-47
2023/05/14 16:21:13;;;;;;;;;;;;;;;;;;5124344;27;20043;-46
2023/05/14 16:23:40;;;;;;;;;;;;;;;;;;5127332;27;19918;-45
2023/05/14 16:26:05;;;;;;;;;;;;;;;;;;5117754;27;19912;-49
2023/05/14 16:28:31;;;;;;;;;;;;;;;;;;5127915;27;19915;-46
2023/05/14 16:30:58;;;;;;;;;;;;;;;;;;5127448;27;20404;-46
2023/05/14 16:33:24;;;;;;;;;;;;;;;;;;5129088;27;20764;-45
2023/05/14 16:35:50;;;;;;;;;;;;;;;;;;5127541;27;20007;-46
2023/05/14 16:38:17;;;;;;;;;;;;;;;;;;5127979;27;19911;-45
2023/05/14 16:40:44;;;;;;;;;;;;;;;;;;5128771;27;20010;-48
2023/05/14 16:43:11;;;;;;;;;;;;;;;;;;5126713;27;20003;-46
2023/05/14 16:45:39;;;;;;;;;;;;;;;;;;5112880;27;19915;-49
2023/05/14 16:48:05;;;;;;;;;;;;;;;;;;5123530;27;19964;-45
2023/05/14 16:50:31;;;;;;;;;;;;;;;;;;5128945;27;19994;-47
2023/05/14 16:52:57;;;;;;;;;;;;;;;;;;5129224;27;20010;-48
2023/05/14 16:55:24;;;;;;;;;;;;;;;;;;5127173;27;19915;-46
2023/05/14 16:57:50;;;;;;;;;;;;;;;;;;5110758;27;20014;-45
2023/05/14 17:00:16;;;;;;;;;;;;;;;;;;5124385;27;20007;-47
2023/05/14 17:02:43;;;;;;;;;;;;;;;;;;5127227;27;19922;-46
2023/05/14 17:05:10;;;;;;;;;;;;;;;;;;5103954;27;19912;-45
2023/05/14 17:07:37;;;;;;;;;;;;;;;;;;5120208;27;19928;-45
2023/05/14 17:10:02;;;;;;;;;;;;;;;;;;5143565;27;20449;-46
2023/05/14 17:12:28;;;;;;;;;;;;;;;;;;5128838;27;20010;-47
2023/05/14 17:14:54;;;;;;;;;;;;;;;;;;5128339;27;20048;-46
2023/05/14 17:17:20;;;;;;;;;;;;;;;;;;5126616;27;20426;-44
2023/05/14 17:19:46;;;;;;;;;;;;;;;;;;5127386;27;19916;-47
2023/05/14 17:22:13;;;;;;;;;;;;;;;;;;5127481;27;20498;-45
2023/05/14 17:24:41;;;;;;;;;;;;;;;;;;5127120;27;19919;-46
2023/05/14 17:27:08;;;;;;;;;;;;;;;;;;5126927;27;19934;-46
2023/05/14 17:29:35;;;;;;;;;;;;;;;;;;5108349;27;19920;-45
2023/05/14 17:32:02;;;;;;;;;;;;;;;;;;5128317;27;20010;-46
2023/05/14 17:34:28;;;;;;;;;;;;;;;;;;5127342;27;20382;-45
2023/05/14 17:36:54;;;;;;;;;;;;;;;;;;5108318;27;20442;-45
2023/05/14 17:39:20;;;;;;;;;;;;;;;;;;5127439;27;20405;-44
2023/05/14 17:41:47;;;;;;;;;;;;;;;;;;5109310;27;19957;-47
2023/05/14 17:44:12;;;;;;;;;;;;;;;;;;5127025;27;19923;-46
2023/05/14 17:46:40;;;;;;;;;;;;;;;;;;5107816;27;20327;-46
2023/05/14 17:49:06;;;;;;;;;;;;;;;;;;5139368;27;19911;-46
2023/05/14 17:51:33;;;;;;;;;;;;;;;;;;5128160;27;19919;-45
2023/05/14 17:53:59;;;;;;;;;;;;;;;;;;5127821;27;19915;-45
2023/05/14 17:56:25;;;;;;;;;;;;;;;;;;5126155;27;19915;-47
2023/05/14 17:58:50;;;;;;;;;;;;;;;;;;5124703;27;20461;-46
2023/05/14 18:01:16;;;;;;;;;;;;;;;;;;5126766;27;19916;-48
2023/05/14 18:03:43;;;;;;;;;;;;;;;;;;5126355;27;19922;-47
2023/05/14 18:06:10;;;;;;;;;;;;;;;;;;5125908;27;19912;-46
2023/05/14 18:08:36;;;;;;;;;;;;;;;;;;5121824;27;20010;-46
2023/05/14 18:11:02;;;;;;;;;;;;;;;;;;5126511;27;20006;-44
2023/05/14 18:13:29;;;;;;;;;;;;;;;;;;5125821;27;20390;-46
2023/05/14 18:15:55;;;;;;;;;;;;;;;;;;5122849;27;19919;-46
2023/05/14 18:18:22;;;;;;;;;;;;;;;;;;5125081;27;20018;-45
2023/05/14 18:20:48;;;;;;;;;;;;;;;;;;5125617;27;19930;-47
2023/05/14 18:23:14;;;;;;;;;;;;;;;;;;5107809;27;19919;-45
2023/05/14 18:25:40;;;;;;;;;;;;;;;;;;5126087;27;19919;-45
2023/05/14 18:28:08;;;;;;;;;;;;;;;;;;5120822;27;20345;-45
2023/05/14 18:30:34;;;;;;;;;;;;;;;;;;5127230;27;19968;-47
2023/05/14 18:33:00;;;;;;;;;;;;;;;;;;5127508;27;19911;-44
2023/05/14 18:35:26;;;;;;;;;;;;;;;;;;5125506;27;19911;-45
2023/05/14 18:37:52;;;;;;;;;;;;;;;;;;5105519;27;20477;-47
2023/05/14 18:40:18;;;;;;;;;;;;;;;;;;5124306;27;19924;-47
2023/05/14 18:42:44;;;;;;;;;;;;;;;;;;5126075;27;19918;-48
2023/05/14 18:45:10;;;;;;;;;;;;;;;;;;5125823;27;20095;-49
2023/05/14 18:47:38;;;;;;;;;;;;;;;;;;5126080;27;19912;-45
2023/05/14 18:50:04;;;;;;;;;;;;;;;;;;5124902;27;19963;-44
2023/05/14 18:52:31;;;;;;;;;;;;;;;;;;5126407;27;19962;-45
2023/05/14 18:54:58;;;;;;;;;;;;;;;;;;5125837;27;19915;-45
2023/05/14 18:57:24;;;;;;;;;;;;;;;;;;5125779;27;19964;-45
2023/05/14 18:59:51;;;;;;;;;;;;;;;;;;5124707;27;20240;-45
2023/05/14 19:02:18;;;;;;;;;;;;;;;;;;5107566;27;19907;-44
2023/05/14 19:04:44;;;;;;;;;;;;;;;;;;5125566;27;19915;-45
2023/05/14 19:07:10;;;;;;;;;;;;;;;;;;5123801;27;19979;-45
2023/05/14 19:09:36;;;;;;;;;;;;;;;;;;5121767;27;20322;-42
2023/05/14 19:12:02;;;;;;;;;;;;;;;;;;5125406;27;19919;-45
2023/05/14 19:14:28;;;;;;;;;;;;;;;;;;5107422;27;19938;-47
2023/05/14 19:16:54;;;;;;;;;;;;;;;;;;5126253;27;20080;-45
2023/05/14 19:19:20;;;;;;;;;;;;;;;;;;5124339;27;19915;-46
2023/05/14 19:21:46;;;;;;;;;;;;;;;;;;5125858;27;19922;-46
2023/05/14 19:24:12;;;;;;;;;;;;;;;;;;5125019;27;19950;-45
2023/05/14 19:26:46;;;;;;;;;;;;;;;;;;5122153;27;19965;-49
2023/05/14 19:29:12;;;;;;;;;;;;;;;;;;5105760;27;19954;-46
2023/05/14 19:31:37;;;;;;;;;;;;;;;;;;5125083;27;20255;-46
2023/05/14 19:34:05;;;;;;;;;;;;;;;;;;5125242;27;20014;-44
2023/05/14 19:36:31;;;;;;;;;;;;;;;;;;5106241;27;19916;-45
2023/05/14 19:38:57;;;;;;;;;;;;;;;;;;5124185;27;19912;-45
2023/05/14 19:41:23;;;;;;;;;;;;;;;;;;5123908;27;20023;-47
2023/05/14 19:43:49;;;;;;;;;;;;;;;;;;5125442;27;19922;-45
2023/05/14 19:46:14;;;;;;;;;;;;;;;;;;5125098;27;19919;-45
2023/05/14 19:48:40;;;;;;;;;;;;;;;;;;5125318;27;19912;-45
2023/05/14 19:51:07;;;;;;;;;;;;;;;;;;5123559;27;19954;-45
2023/05/14 19:53:34;;;;;;;;;;;;;;;;;;5118279;27;20472;-47
2023/05/14 19:56:01;;;;;;;;;;;;;;;;;;5110230;27;20306;-47
2023/05/14 19:58:27;;;;;;;;;;;;;;;;;;5118074;27;19912;-45
2023/05/14 20:00:55;;;;;;;;;;;;;;;;;;5124986;28;19916;-44
2023/05/14 20:03:24;;;;;;;;;;;;;;;;;;5124822;28;19915;-46
2023/05/14 20:05:51;;;;;;;;;;;;;;;;;;5120912;28;19923;-46
2023/05/14 20:08:17;;;;;;;;;;;;;;;;;;5115100;28;19935;-45
2023/05/14 20:10:43;;;;;;;;;;;;;;;;;;5124747;28;20435;-45
2023/05/14 20:13:09;;;;;;;;;;;;;;;;;;5123563;28;19919;-45
2023/05/14 20:15:36;;;;;;;;;;;;;;;;;;5122936;28;19923;-45
2023/05/14 20:18:02;;;;;;;;;;;;;;;;;;5121747;28;19919;-44
2023/05/14 20:20:29;;;;;;;;;;;;;;;;;;5124479;28;20510;-44
2023/05/14 20:22:55;;;;;;;;;;;;;;;;;;5114851;28;19956;-44
2023/05/14 20:25:21;;;;;;;;;;;;;;;;;;5118819;28;20046;-45
2023/05/14 20:27:47;;;;;;;;;;;;;;;;;;5102845;28;19922;-47
2023/05/14 20:30:14;;;;;;;;;;;;;;;;;;5124528;28;19919;-46
2023/05/14 20:32:41;;;;;;;;;;;;;;;;;;5125208;28;20002;-49
2023/05/14 20:35:06;;;;;;;;;;;;;;;;;;5124533;28;19922;-45
2023/05/14 20:37:32;;;;;;;;;;;;;;;;;;5123793;28;19911;-46
2023/05/14 20:39:58;;;;;;;;;;;;;;;;;;5124944;28;20172;-44
2023/05/14 20:42:24;;;;;;;;;;;;;;;;;;5124775;28;19919;-45
2023/05/14 20:44:50;;;;;;;;;;;;;;;;;;5125166;28;20339;-46
2023/05/14 20:47:20;;;;;;;;;;;;;;;;;;5121023;28;19912;-45
2023/05/14 20:49:49;;;;;;;;;;;;;;;;;;5124594;28;19914;-45
2023/05/14 20:52:15;;;;;;;;;;;;;;;;;;5124984;28;20099;-45
2023/05/14 20:54:41;;;;;;;;;;;;;;;;;;5125177;28;19911;-47
2023/05/14 20:57:08;;;;;;;;;;;;;;;;;;5123757;28;19968;-45
2023/05/14 20:59:35;;;;;;;;;;;;;;;;;;5125679;28;20399;-45
2023/05/14 21:02:00;;;;;;;;;;;;;;;;;;5125671;28;19907;-44
2023/05/14 21:04:26;;;;;;;;;;;;;;;;;;5123666;28;19912;-46
2023/05/14 21:06:53;;;;;;;;;;;;;;;;;;5123333;28;19912;-46
2023/05/14 21:09:22;;;;;;;;;;;;;;;;;;5127803;27;19961;-46
2023/05/14 21:11:48;;;;;;;;;;;;;;;;;;5128754;27;19950;-45
2023/05/14 21:14:15;;;;;;;;;;;;;;;;;;5128480;27;19912;-46
2023/05/14 21:16:41;;;;;;;;;;;;;;;;;;5124147;27;19923;-45
2023/05/14 21:19:07;;;;;;;;;;;;;;;;;;5107475;28;19908;-45
2023/05/14 21:21:33;;;;;;;;;;;;;;;;;;5109254;27;19912;-48
2023/05/14 21:24:00;;;;;;;;;;;;;;;;;;5110366;27;19912;-46
2023/05/14 21:26:27;;;;;;;;;;;;;;;;;;5109971;27;19907;-48
2023/05/14 21:28:52;;;;;;;;;;;;;;;;;;5127114;27;19915;-44
2023/05/14 21:31:18;;;;;;;;;;;;;;;;;;5127604;27;19911;-45
2023/05/14 21:33:44;;;;;;;;;;;;;;;;;;5127775;27;19915;-44
2023/05/14 21:36:10;;;;;;;;;;;;;;;;;;5127924;27;19934;-45
2023/05/14 21:38:37;;;;;;;;;;;;;;;;;;5128083;27;19908;-44
2023/05/14 21:41:03;;;;;;;;;;;;;;;;;;5128326;27;20449;-45
2023/05/14 21:43:29;;;;;;;;;;;;;;;;;;5128936;27;19912;-48
2023/05/14 21:45:55;;;;;;;;;;;;;;;;;;5128343;27;19911;-44